Camp Stafford, Louisiana
Current Conditions -  °F | °C
As of 9:53 PM on Wednesday 22 Oct 2014 (Local Time) from KAEX Reporting Station
Clear Clear  
Wind Chill: 60°   Ceiling: Unl
Heat Index: 60°   Visibility: 10mi
Dew Point: 53°   Wind: 6mph
Humidity: 78%   Direction: 360°N
Pressure: 30.11"   Gusts: NA
Location:  31.2655°N, 92.4705°W
Report Text: KAEX 230253Z 36005KT 10SM CLR 16/12 A3011 RMK AO2 SLP199 T01560117 53015
Loading
Personal Weather Stations






























Interactive Weather Map
Tropical Storm Tracking
New forecast layout! Learn more

10-Day Weather Forecast

Advertisements
Track Severe Weather on mobile